Terminal Aerodrome Forecast
Issued by NWS Tampa Bay Area, FL

Home | Current Version | Previous Version | Text Only | Print | Product List | Glossary On
Versions: 1 2 3 4 5 6 7 8 9 10 11 12 13 14 15 16
000
FTUS42 KTBW 251122
TAFSRQ
TAF
KSRQ 251122Z 2512/2612 12005KT P6SM SCT250
     FM251400 26005KT P6SM SCT020 SCT250
     FM251700 27007KT P6SM FEW035 SCT250
     FM252200 30007KT P6SM FEW035 SCT250
     FM260200 VRB03KT P6SM FEW040 SCT250=

USA.gov is the U.S. government's official web portal to all federal, state and local government web resources and services.